createdAt,value
2019-01-06T00:02:23.233Z,4.40
2019-01-06T00:05:08.618Z,4.50
2019-01-06T00:08:00.233Z,4.50
2019-01-06T00:10:57.897Z,4.50
2019-01-06T00:13:57.626Z,4.40
2019-01-06T00:16:44.757Z,4.40
2019-01-06T00:19:29.363Z,4.30
2019-01-06T00:22:25.261Z,4.30
2019-01-06T00:25:07.554Z,4.30
2019-01-06T00:28:01.442Z,4.30
2019-01-06T00:30:52.630Z,4.30
2019-01-06T00:33:39.645Z,4.20
2019-01-06T00:36:31.012Z,4.20
2019-01-06T00:39:18.766Z,4.20
2019-01-06T00:42:11.618Z,4.10
2019-01-06T00:44:58.759Z,3.90
2019-01-06T00:47:59.071Z,3.80
2019-01-06T00:51:00.938Z,3.70
2019-01-06T00:53:49.341Z,3.70
2019-01-06T00:56:37.597Z,3.60
2019-01-06T00:59:28.728Z,3.50
2019-01-06T01:02:15.848Z,3.40
2019-01-06T01:05:03.448Z,3.50
2019-01-06T01:07:54.337Z,3.40
2019-01-06T01:10:42.499Z,3.40
2019-01-06T01:13:29.396Z,3.40
2019-01-06T01:16:16.178Z,3.30
2019-01-06T01:18:58.037Z,3.30
2019-01-06T01:21:44.921Z,3.20
2019-01-06T01:24:31.809Z,3.20
2019-01-06T01:27:23.728Z,3.20
2019-01-06T01:30:11.927Z,3.20
2019-01-06T01:32:58.724Z,3.20
2019-01-06T01:35:45.397Z,3.20
2019-01-06T01:38:45.761Z,3.20
2019-01-06T01:41:36.925Z,3.10
2019-01-06T01:44:23.992Z,3.00
2019-01-06T01:47:12.104Z,3.00
2019-01-06T01:50:07.732Z,2.90
2019-01-06T01:53:01.888Z,2.90
2019-01-06T01:55:50.107Z,2.80
2019-01-06T01:58:31.817Z,2.80
2019-01-06T02:01:18.697Z,2.80
2019-01-06T02:04:06.018Z,2.80
2019-01-06T02:06:48.323Z,2.70
2019-01-06T02:09:35.504Z,2.70
2019-01-06T02:12:32.741Z,2.80
2019-01-06T02:15:23.945Z,2.80
2019-01-06T02:18:10.678Z,2.90
2019-01-06T02:21:01.929Z,2.90
2019-01-06T02:23:56.240Z,3.00
2019-01-06T02:26:43.133Z,3.10
2019-01-06T02:29:26.609Z,3.00
2019-01-06T02:32:23.957Z,3.00
2019-01-06T02:35:17.941Z,3.00
2019-01-06T02:38:09.154Z,3.00
2019-01-06T02:41:09.585Z,3.00
2019-01-06T02:44:08.725Z,3.00
2019-01-06T02:46:55.570Z,2.90
2019-01-06T02:49:43.699Z,2.90
2019-01-06T02:52:30.989Z,2.80
2019-01-06T02:55:17.926Z,2.80
2019-01-06T02:58:08.229Z,2.90
2019-01-06T03:01:10.955Z,3.00
2019-01-06T03:03:59.056Z,3.00
2019-01-06T03:06:51.355Z,3.10
2019-01-06T03:09:38.087Z,3.10
2019-01-06T03:12:21.659Z,3.10
2019-01-06T03:15:09.802Z,3.10
2019-01-06T03:17:56.903Z,3.10
2019-01-06T03:20:45.674Z,3.10
2019-01-06T03:23:32.477Z,3.10
2019-01-06T03:26:19.193Z,3.10
2019-01-06T03:29:07.241Z,3.00
2019-01-06T03:31:54.138Z,3.00
2019-01-06T03:34:49.740Z,3.00
2019-01-06T03:37:30.646Z,3.00
2019-01-06T03:40:18.688Z,3.10
2019-01-06T03:43:05.772Z,3.10
2019-01-06T03:45:50.835Z,3.10
2019-01-06T03:48:38.010Z,3.10
2019-01-06T03:51:30.335Z,3.10
2019-01-06T03:54:33.554Z,3.20
2019-01-06T03:57:37.202Z,3.10
2019-01-06T04:00:30.143Z,3.10
2019-01-06T04:03:14.120Z,3.10
2019-01-06T04:06:01.343Z,3.20
2019-01-06T04:09:01.154Z,3.20
2019-01-06T04:11:49.075Z,3.20
2019-01-06T04:14:40.053Z,3.10
2019-01-06T04:17:46.669Z,3.20
2019-01-06T04:20:33.588Z,3.20
2019-01-06T04:23:20.594Z,3.10
2019-01-06T04:26:07.425Z,3.20
2019-01-06T04:28:56.015Z,3.10
2019-01-06T04:31:43.185Z,3.10
2019-01-06T04:34:32.376Z,3.10
2019-01-06T04:37:24.485Z,3.10
2019-01-06T04:40:04.052Z,3.10
2019-01-06T04:42:55.032Z,3.20
2019-01-06T04:45:46.149Z,3.10
2019-01-06T04:48:33.072Z,3.10
2019-01-06T04:51:19.774Z,3.10
2019-01-06T04:54:07.470Z,3.10
2019-01-06T04:56:54.292Z,3.00
2019-01-06T04:59:54.777Z,3.00
2019-01-06T05:02:41.728Z,3.00
2019-01-06T05:05:28.839Z,3.00
2019-01-06T05:08:19.725Z,3.00
2019-01-06T05:11:02.775Z,3.00
2019-01-06T05:13:56.718Z,3.00
2019-01-06T05:16:44.856Z,3.00
2019-01-06T05:19:31.617Z,3.00
2019-01-06T05:22:23.325Z,2.90
2019-01-06T05:25:23.434Z,2.90
2019-01-06T05:28:11.410Z,2.90
2019-01-06T05:30:59.522Z,2.90
2019-01-06T05:33:46.565Z,2.90
2019-01-06T05:36:38.769Z,2.80
2019-01-06T05:39:30.172Z,2.80
2019-01-06T05:42:09.131Z,2.80
2019-01-06T05:44:59.570Z,2.90
2019-01-06T05:47:54.107Z,2.90
2019-01-06T05:50:48.711Z,2.80
2019-01-06T05:53:42.628Z,2.90
2019-01-06T05:56:21.926Z,2.90
2019-01-06T05:59:16.185Z,3.00
2019-01-06T06:01:53.949Z,3.00
2019-01-06T06:04:37.086Z,3.00
2019-01-06T06:07:24.026Z,2.90
2019-01-06T06:10:18.561Z,3.00
2019-01-06T06:13:09.834Z,3.00
2019-01-06T06:16:01.040Z,2.90
2019-01-06T06:18:51.413Z,2.90
2019-01-06T06:21:38.345Z,2.90
2019-01-06T06:24:18.470Z,2.90
2019-01-06T06:27:15.661Z,2.90
2019-01-06T06:30:19.405Z,2.90
2019-01-06T06:33:10.398Z,2.80
2019-01-06T06:36:13.728Z,2.90
2019-01-06T06:39:17.082Z,2.90
2019-01-06T06:42:04.103Z,2.90
2019-01-06T06:44:52.212Z,2.90
2019-01-06T06:47:39.131Z,2.90
2019-01-06T06:50:42.520Z,2.90
2019-01-06T06:53:33.581Z,2.90
2019-01-06T06:56:21.649Z,2.90
2019-01-06T06:59:10.622Z,2.80
2019-01-06T07:02:44.561Z,2.80
2019-01-06T07:05:51.120Z,2.80
2019-01-06T07:08:39.075Z,2.90
2019-01-06T07:11:35.517Z,2.90
2019-01-06T07:14:22.588Z,2.90
2019-01-06T07:17:59.038Z,2.90
2019-01-06T07:20:45.967Z,2.90
2019-01-06T07:23:32.780Z,2.90
2019-01-06T07:26:26.961Z,2.90
2019-01-06T07:29:10.107Z,2.90
2019-01-06T07:32:04.189Z,2.90
2019-01-06T07:34:56.413Z,2.90
2019-01-06T07:37:43.761Z,2.90
2019-01-06T07:40:30.804Z,3.00
2019-01-06T07:43:17.605Z,3.00
2019-01-06T07:46:08.905Z,3.00
2019-01-06T07:49:12.477Z,3.00
2019-01-06T07:51:52.050Z,3.00
2019-01-06T07:54:39.009Z,3.00
2019-01-06T07:57:26.201Z,3.00
2019-01-06T08:00:15.478Z,3.10
2019-01-06T08:03:01.802Z,3.10
2019-01-06T08:05:56.070Z,3.20
2019-01-06T08:08:43.030Z,3.20
2019-01-06T08:11:30.818Z,3.20
2019-01-06T08:14:28.978Z,3.20
2019-01-06T08:17:20.161Z,3.20
2019-01-06T08:20:12.281Z,3.20
2019-01-06T08:23:04.229Z,3.30
2019-01-06T08:26:04.482Z,3.30
2019-01-06T08:28:51.382Z,3.30
2019-01-06T08:31:37.933Z,3.40
2019-01-06T08:34:25.121Z,3.40
2019-01-06T08:37:12.136Z,3.50
2019-01-06T08:39:58.887Z,3.40
2019-01-06T08:42:44.185Z,3.40
2019-01-06T08:45:51.171Z,3.40
2019-01-06T08:48:37.993Z,3.40
2019-01-06T08:51:24.970Z,3.50
2019-01-06T08:54:12.166Z,3.50
2019-01-06T08:57:18.617Z,3.50
2019-01-06T09:00:18.671Z,3.60
2019-01-06T09:03:15.677Z,3.60
2019-01-06T09:05:59.950Z,3.70
2019-01-06T09:09:06.476Z,3.70
2019-01-06T09:12:10.447Z,3.80
2019-01-06T09:14:57.197Z,3.90
2019-01-06T09:17:45.500Z,4.00
2019-01-06T09:20:36.842Z,4.00
2019-01-06T09:23:28.483Z,4.00
2019-01-06T09:26:23.805Z,4.00
2019-01-06T09:29:16.277Z,4.10
2019-01-06T09:32:13.529Z,4.10
2019-01-06T09:35:16.905Z,4.10
2019-01-06T09:38:05.299Z,4.20
2019-01-06T09:40:59.282Z,4.30
2019-01-06T09:43:53.446Z,4.30
2019-01-06T09:46:40.581Z,4.30
2019-01-06T09:49:28.669Z,4.50
2019-01-06T09:52:16.770Z,4.50
2019-01-06T09:55:24.514Z,4.60
2019-01-06T09:58:18.517Z,4.60
2019-01-06T10:01:02.996Z,4.60
2019-01-06T10:03:55.825Z,4.50
2019-01-06T10:06:43.926Z,4.60
2019-01-06T10:09:28.757Z,4.80
2019-01-06T10:12:16.865Z,4.90
2019-01-06T10:15:13.780Z,4.90
2019-01-06T10:18:11.511Z,5.00
2019-01-06T10:21:03.081Z,5.00
2019-01-06T10:23:51.389Z,5.00
2019-01-06T10:26:38.466Z,5.00
2019-01-06T10:29:21.498Z,5.00
2019-01-06T10:32:13.333Z,5.10
2019-01-06T10:34:58.780Z,5.20
2019-01-06T10:38:05.337Z,5.10
2019-01-06T10:40:49.292Z,5.30
2019-01-06T10:43:36.459Z,5.50
2019-01-06T10:46:33.680Z,5.60
2019-01-06T10:49:22.081Z,5.50
2019-01-06T10:52:09.031Z,5.50
2019-01-06T10:54:56.909Z,5.40
2019-01-06T10:58:00.439Z,5.30
2019-01-06T11:00:47.737Z,5.40
2019-01-06T11:03:34.446Z,5.60
2019-01-06T11:06:40.819Z,5.50
2019-01-06T11:09:27.542Z,5.40
2019-01-06T11:12:14.591Z,5.50
2019-01-06T11:15:02.708Z,5.30
2019-01-06T11:18:06.046Z,5.40
2019-01-06T11:20:52.194Z,5.50
2019-01-06T11:23:32.393Z,5.40
2019-01-06T11:26:19.278Z,5.50
2019-01-06T11:29:16.448Z,5.50
2019-01-06T11:32:07.426Z,5.40
2019-01-06T11:34:59.915Z,5.30
2019-01-06T11:37:48.178Z,5.20
2019-01-06T11:40:36.354Z,5.20
2019-01-06T11:43:23.380Z,5.40
2019-01-06T11:46:15.246Z,5.40
2019-01-06T11:49:01.057Z,5.40
2019-01-06T11:51:48.891Z,5.30
2019-01-06T11:54:52.213Z,5.30
2019-01-06T11:57:44.729Z,5.30
2019-01-06T12:00:31.611Z,5.20
2019-01-06T12:03:19.913Z,5.10
2019-01-06T12:06:20.182Z,5.00
2019-01-06T12:09:24.904Z,5.10
2019-01-06T12:12:11.817Z,5.20
2019-01-06T12:14:58.935Z,5.20
2019-01-06T12:17:45.614Z,5.10
2019-01-06T12:20:40.149Z,5.10
2019-01-06T12:23:26.998Z,5.20
2019-01-06T12:26:27.920Z,5.00
2019-01-06T12:29:16.034Z,5.00
2019-01-06T12:32:06.950Z,5.20
2019-01-06T12:34:55.559Z,5.20
2019-01-06T12:37:58.928Z,5.30
2019-01-06T12:40:41.902Z,5.30
2019-01-06T12:43:37.791Z,5.20
2019-01-06T12:46:24.529Z,5.30
2019-01-06T12:49:13.433Z,5.30
2019-01-06T12:52:00.557Z,5.40
2019-01-06T12:54:54.609Z,5.40
2019-01-06T12:57:47.183Z,5.40
2019-01-06T13:00:37.114Z,5.50
2019-01-06T13:03:21.798Z,5.50
2019-01-06T13:06:10.186Z,5.40
2019-01-06T13:09:07.297Z,5.30
2019-01-06T13:11:54.659Z,5.20
2019-01-06T13:14:42.793Z,5.20
2019-01-06T13:17:46.082Z,5.20
2019-01-06T13:20:27.767Z,5.10
2019-01-06T13:23:18.736Z,5.00
2019-01-06T13:26:04.297Z,5.00
2019-01-06T13:28:52.521Z,5.00
2019-01-06T13:31:47.669Z,4.90
2019-01-06T13:34:35.797Z,4.90
2019-01-06T13:37:22.712Z,4.90
2019-01-06T13:40:09.812Z,5.00
2019-01-06T13:42:56.754Z,5.20
2019-01-06T13:46:00.279Z,5.40
2019-01-06T13:48:58.859Z,5.40
2019-01-06T13:51:46.103Z,5.40
2019-01-06T13:54:34.279Z,5.40
2019-01-06T13:57:25.315Z,5.50
2019-01-06T14:00:13.373Z,5.50
2019-01-06T14:02:51.690Z,5.50
2019-01-06T14:05:58.177Z,5.20
2019-01-06T14:08:55.407Z,5.20
2019-01-06T14:11:42.154Z,5.10
2019-01-06T14:14:30.748Z,5.00
2019-01-06T14:17:17.617Z,4.90
2019-01-06T14:20:16.845Z,4.80
2019-01-06T14:23:11.912Z,4.80
2019-01-06T14:26:06.377Z,4.80
2019-01-06T14:28:53.429Z,4.90
2019-01-06T14:31:40.637Z,4.90
2019-01-06T14:34:26.582Z,4.80
2019-01-06T14:37:23.494Z,4.60
2019-01-06T14:40:12.702Z,4.40
2019-01-06T14:42:59.893Z,4.30
2019-01-06T14:45:45.681Z,4.30
2019-01-06T14:48:28.433Z,4.30
2019-01-06T14:51:16.599Z,4.20
2019-01-06T14:54:03.479Z,4.20
2019-01-06T14:56:50.437Z,4.10
2019-01-06T14:59:38.545Z,4.10
2019-01-06T15:02:36.237Z,4.10
2019-01-06T15:05:23.733Z,4.00
2019-01-06T15:08:10.629Z,4.00
2019-01-06T15:11:04.793Z,3.90
2019-01-06T15:13:58.950Z,3.90
2019-01-06T15:16:50.152Z,3.80
2019-01-06T15:19:53.624Z,3.80
2019-01-06T15:22:50.718Z,3.70
2019-01-06T15:25:37.537Z,3.70
2019-01-06T15:28:24.722Z,3.70
2019-01-06T15:31:15.575Z,3.70
2019-01-06T15:34:09.809Z,3.70
2019-01-06T15:37:12.964Z,3.70
2019-01-06T15:40:07.151Z,3.70
2019-01-06T15:42:54.226Z,3.70
2019-01-06T15:45:42.922Z,3.70
2019-01-06T15:48:40.212Z,3.70
2019-01-06T15:51:43.499Z,3.70
2019-01-06T15:54:30.797Z,3.70
2019-01-06T15:57:31.260Z,3.80
2019-01-06T16:00:18.240Z,3.90
2019-01-06T16:03:07.665Z,4.00
2019-01-06T16:05:54.662Z,4.00
2019-01-06T16:08:35.582Z,4.10
2019-01-06T16:11:36.068Z,4.10
2019-01-06T16:14:21.660Z,4.10
2019-01-06T16:17:09.872Z,4.10
2019-01-06T16:19:52.029Z,4.10
2019-01-06T16:22:49.320Z,4.20
2019-01-06T16:25:36.276Z,4.20
2019-01-06T16:28:23.469Z,4.20
2019-01-06T16:31:12.791Z,4.30
2019-01-06T16:34:01.880Z,4.20
2019-01-06T16:37:02.259Z,4.20
2019-01-06T16:39:49.530Z,4.10
2019-01-06T16:42:40.330Z,4.10
2019-01-06T16:45:37.618Z,4.10
2019-01-06T16:48:44.638Z,4.10
2019-01-06T16:51:31.804Z,4.10
2019-01-06T16:54:22.889Z,4.10
2019-01-06T16:57:11.169Z,4.00
2019-01-06T17:00:05.449Z,4.10
2019-01-06T17:02:56.566Z,4.10
2019-01-06T17:05:49.555Z,4.10
2019-01-06T17:08:49.448Z,4.10
2019-01-06T17:11:43.778Z,4.10
2019-01-06T17:14:33.426Z,4.10
2019-01-06T17:17:30.544Z,4.20
2019-01-06T17:20:20.683Z,4.20
2019-01-06T17:23:07.785Z,4.20
2019-01-06T17:25:48.157Z,4.20
2019-01-06T17:28:36.287Z,4.20
2019-01-06T17:31:24.345Z,4.10
2019-01-06T17:34:07.924Z,4.10
2019-01-06T17:36:51.102Z,4.10
2019-01-06T17:39:34.850Z,4.10
2019-01-06T17:42:32.270Z,4.10
2019-01-06T17:45:20.536Z,4.20
2019-01-06T17:48:20.673Z,4.20
2019-01-06T17:51:14.847Z,4.20
2019-01-06T17:53:56.641Z,4.20
2019-01-06T17:56:39.543Z,4.20
2019-01-06T17:59:35.033Z,4.10
2019-01-06T18:02:22.276Z,4.10
2019-01-06T18:05:16.542Z,4.00
2019-01-06T18:08:11.047Z,4.00
2019-01-06T18:10:59.412Z,4.00
2019-01-06T18:13:59.716Z,4.00
2019-01-06T18:16:50.654Z,4.00
2019-01-06T18:19:34.562Z,4.00
2019-01-06T18:22:36.384Z,4.00
2019-01-06T18:25:23.966Z,4.10
2019-01-06T18:28:20.225Z,4.10
2019-01-06T18:31:23.717Z,4.00
2019-01-06T18:34:22.329Z,4.10
2019-01-06T18:37:19.654Z,4.10
2019-01-06T18:40:20.505Z,4.10
2019-01-06T18:43:20.890Z,4.20
2019-01-06T18:46:07.685Z,4.20
2019-01-06T18:48:49.737Z,4.20
2019-01-06T18:51:40.620Z,4.20
2019-01-06T18:54:29.869Z,4.10
2019-01-06T18:57:20.493Z,4.10
2019-01-06T19:00:07.555Z,4.10
2019-01-06T19:03:10.849Z,4.00
2019-01-06T19:05:57.396Z,4.10
2019-01-06T19:09:00.756Z,4.10
2019-01-06T19:11:47.609Z,4.00
2019-01-06T19:14:34.557Z,4.10
2019-01-06T19:17:40.664Z,4.10
2019-01-06T19:20:31.742Z,4.20
2019-01-06T19:23:18.897Z,4.20
2019-01-06T19:26:10.030Z,4.10
2019-01-06T19:28:57.150Z,4.20
2019-01-06T19:31:51.085Z,4.20
2019-01-06T19:34:52.826Z,4.20
2019-01-06T19:37:50.236Z,4.20
2019-01-06T19:40:37.449Z,4.20
2019-01-06T19:43:41.645Z,4.20
2019-01-06T19:46:25.229Z,4.20
2019-01-06T19:49:11.689Z,4.20
2019-01-06T19:52:12.910Z,4.20
2019-01-06T19:54:57.193Z,4.20
2019-01-06T19:57:47.146Z,4.10
2019-01-06T20:00:46.105Z,4.10
2019-01-06T20:03:46.246Z,4.10
2019-01-06T20:06:36.308Z,4.10
2019-01-06T20:09:41.269Z,4.10
2019-01-06T20:12:39.375Z,4.10
2019-01-06T20:15:36.426Z,4.10
2019-01-06T20:18:31.795Z,4.00
2019-01-06T20:21:25.957Z,4.00
2019-01-06T20:24:09.401Z,4.10
2019-01-06T20:26:56.398Z,4.00
2019-01-06T20:29:43.385Z,3.80
2019-01-06T20:32:41.014Z,3.80
2019-01-06T20:35:21.881Z,3.80
2019-01-06T20:38:13.145Z,3.90
2019-01-06T20:41:07.311Z,3.90
2019-01-06T20:44:11.006Z,3.90
2019-01-06T20:47:17.516Z,3.90
2019-01-06T20:50:05.602Z,3.80
2019-01-06T20:52:50.937Z,3.80
2019-01-06T20:55:37.805Z,3.80
2019-01-06T20:58:44.341Z,3.80
2019-01-06T21:01:38.803Z,3.80
2019-01-06T21:04:25.832Z,3.90
2019-01-06T21:07:07.135Z,3.90
2019-01-06T21:09:55.288Z,3.90
2019-01-06T21:12:38.910Z,3.90
2019-01-06T21:15:36.072Z,3.90
2019-01-06T21:18:22.942Z,4.00
2019-01-06T21:21:10.282Z,3.90
2019-01-06T21:24:04.513Z,3.90
2019-01-06T21:26:51.652Z,3.90
2019-01-06T21:29:38.908Z,3.90
2019-01-06T21:32:25.834Z,3.80
2019-01-06T21:35:14.109Z,3.80
2019-01-06T21:38:01.427Z,3.90
2019-01-06T21:40:48.549Z,3.80
2019-01-06T21:43:35.646Z,3.80
2019-01-06T21:46:36.144Z,3.80
2019-01-06T21:49:28.154Z,3.80
2019-01-06T21:52:15.372Z,3.90
2019-01-06T21:55:12.147Z,3.90
2019-01-06T21:57:54.212Z,3.80
2019-01-06T22:00:41.284Z,3.80
2019-01-06T22:03:38.788Z,3.90
2019-01-06T22:06:27.976Z,3.80
2019-01-06T22:09:17.251Z,3.90
2019-01-06T22:12:11.278Z,4.00
2019-01-06T22:15:11.200Z,4.00
2019-01-06T22:18:05.546Z,4.10
2019-01-06T22:20:54.074Z,4.10
2019-01-06T22:23:51.440Z,4.10
2019-01-06T22:26:42.844Z,4.10
2019-01-06T22:29:42.904Z,4.00
2019-01-06T22:32:29.797Z,3.90
2019-01-06T22:35:28.954Z,3.80
2019-01-06T22:38:15.573Z,3.70
2019-01-06T22:41:09.721Z,3.70
2019-01-06T22:43:57.909Z,3.80
2019-01-06T22:46:52.144Z,3.70
2019-01-06T22:49:35.208Z,3.60
2019-01-06T22:52:36.690Z,3.60
2019-01-06T22:55:18.056Z,3.60
2019-01-06T22:58:05.031Z,3.70
2019-01-06T23:00:50.982Z,3.80
2019-01-06T23:03:39.168Z,3.80
2019-01-06T23:06:19.449Z,3.90
2019-01-06T23:09:07.512Z,3.80
2019-01-06T23:11:51.270Z,3.70
2019-01-06T23:14:38.354Z,3.70
2019-01-06T23:17:36.697Z,3.70
2019-01-06T23:20:21.501Z,3.80
2019-01-06T23:23:21.979Z,3.70
2019-01-06T23:26:08.826Z,3.70
2019-01-06T23:28:59.800Z,3.70
2019-01-06T23:31:47.664Z,3.60
2019-01-06T23:34:38.865Z,3.50
2019-01-06T23:37:25.653Z,3.50
2019-01-06T23:40:16.479Z,3.40
2019-01-06T23:43:06.130Z,3.50
2019-01-06T23:46:03.520Z,3.60
2019-01-06T23:48:50.524Z,3.60
2019-01-06T23:51:37.296Z,3.50
2019-01-06T23:54:28.738Z,3.50
2019-01-06T23:57:12.357Z,3.50
